Time;durP1;ratioP1;P1;durP2;ratioP2;P2;SDS_P1;SDS_P2;PMS_P1;PMS_P2;Temp;Humidity;BMP_temperature;BMP_pressure;BME280_temperature;BME280_humidity;BME280_pressure;Samples;Min_cycle;Max_cycle;Signal;HPM_P1;HPM_P2
2024/03/01 00:00:51;;;;;;;5.90;0.77;;;;;;;3.69;100.00;97708.84;5554840;23;20480;-96
2024/03/01 00:31:48;;;;;;;3.20;0.68;;;;;;;3.56;100.00;97659.72;4928009;29;20046;-95
2024/03/01 00:38:39;;;;;;;;;;;;;;;3.34;100.00;97647.22;4928897;29;20115;-94
2024/03/01 00:41:08;;;;;;;0.82;0.30;;;;;;;3.38;100.00;97628.63;4903578;29;19919;-94
2024/03/01 00:43:46;;;;;;;1.67;0.38;;;;;;;3.47;100.00;97635.44;4911499;29;20122;-94
2024/03/01 00:46:15;;;;;;;1.75;0.32;;;;;;;3.54;100.00;97630.34;4901784;29;20039;-94
2024/03/01 01:00:17;;;;;;;0.88;0.20;;;;;;;3.80;100.00;97596.13;5329509;23;20076;-94
2024/03/01 01:02:46;;;;;;;1.45;0.20;;;;;;;3.81;100.00;97583.84;4936182;28;20031;-94
2024/03/01 01:19:20;;;;;;;0.45;0.20;;;;;;;3.75;100.00;97566.25;4924147;29;20068;-94
2024/03/01 01:21:46;;;;;;;2.20;0.30;;;;;;;3.72;100.00;97552.56;4882620;29;20036;-94
2024/03/01 01:30:29;;;;;;;1.63;0.33;;;;;;;3.79;100.00;97542.22;5493583;23;20504;-94
2024/03/01 01:33:03;;;;;;;1.40;0.30;;;;;;;3.80;100.00;97550.88;4915096;28;20473;-94
2024/03/01 01:35:31;;;;;;;1.23;0.40;;;;;;;3.78;100.00;97540.59;4920668;29;20058;-93
2024/03/01 01:38:01;;;;;;;2.83;0.77;;;;;;;3.77;100.00;97532.94;4944974;28;20031;-93
2024/03/01 01:40:33;;;;;;;1.15;0.47;;;;;;;3.84;100.00;97536.47;4906275;29;20039;-94
2024/03/01 01:43:03;;;;;;;0.90;0.52;;;;;;;3.87;100.00;97538.75;4910521;29;20042;-93
2024/03/01 01:51:35;;;;;;;0.40;0.30;;;;;;;3.80;100.00;97519.53;4936935;29;20048;-93
2024/03/01 01:54:09;;;;;;;1.30;0.30;;;;;;;3.70;100.00;97520.56;4909081;29;20096;-94
2024/03/01 01:56:43;;;;;;;0.52;0.13;;;;;;;3.67;100.00;97520.09;4923707;29;20039;-92
2024/03/01 01:59:18;;;;;;;0.13;0.10;;;;;;;3.63;100.00;97526.66;4933012;29;20076;-93
2024/03/01 02:02:01;;;;;;;0.95;0.20;;;;;;;3.53;100.00;97522.47;4906365;29;20242;-93
2024/03/01 02:04:27;;;;;;;0.25;0.20;;;;;;;3.47;100.00;97518.72;4904078;29;20043;-93
2024/03/01 02:06:53;;;;;;;3.60;0.20;;;;;;;3.36;100.00;97519.09;4907345;29;20043;-94
2024/03/01 02:09:19;;;;;;;0.30;0.10;;;;;;;3.32;100.00;97523.88;4919652;29;20037;-93
2024/03/01 02:11:46;;;;;;;0.20;0.20;;;;;;;3.27;100.00;97520.13;4908092;29;20062;-93
2024/03/01 02:14:12;;;;;;;0.95;0.95;;;;;;;3.15;100.00;97517.91;4921676;29;20048;-93
2024/03/01 02:16:50;;;;;;;2.47;1.05;;;;;;;2.97;100.00;97505.09;4899263;29;20036;-94
2024/03/01 02:19:17;;;;;;;0.40;0.20;;;;;;;2.95;100.00;97507.03;4921889;29;20359;-94
2024/03/01 02:22:18;;;;;;;0.28;0.20;;;;;;;2.90;100.00;97511.97;4928325;29;20130;-93
2024/03/01 02:24:51;;;;;;;0.10;0.10;;;;;;;2.83;100.00;97507.41;4921447;29;20032;-89
2024/03/01 02:27:18;;;;;;;0.25;0.10;;;;;;;2.66;100.00;97508.44;4904635;29;20136;-94
2024/03/01 02:29:43;;;;;;;1.45;0.20;;;;;;;2.57;100.00;97508.44;4909026;29;20074;-94
2024/03/01 02:32:12;;;;;;;0.10;0.10;;;;;;;2.46;100.00;97517.44;4909753;29;20039;-94
2024/03/01 02:35:03;;;;;;;0.25;0.10;;;;;;;2.47;100.00;97516.44;4903744;29;20067;-96
2024/03/01 02:37:31;;;;;;;0.10;0.05;;;;;;;2.40;100.00;97522.47;4920087;29;20061;-94
2024/03/01 02:40:02;;;;;;;0.10;0.05;;;;;;;2.32;100.00;97516.31;4902738;29;20131;-96
2024/03/01 02:42:34;;;;;;;0.10;0.10;;;;;;;2.30;100.00;97517.44;4915183;29;20052;-94
2024/03/01 02:45:01;;;;;;;0.03;0.03;;;;;;;2.23;100.00;97510.25;4919102;29;20043;-93
2024/03/01 02:47:30;;;;;;;0.00;0.00;;;;;;;2.18;100.00;97511.75;4909162;29;20401;-94
2024/03/01 02:50:01;;;;;;;0.10;0.10;;;;;;;2.16;100.00;97500.66;4904297;29;20490;-93
2024/03/01 02:52:43;;;;;;;0.00;0.00;;;;;;;2.14;100.00;97506.03;4917725;28;20039;-94
2024/03/01 03:01:21;;;;;;;0.10;0.10;;;;;;;1.99;100.00;97487.66;4451968;23;20311;31
2024/03/01 03:03:51;;;;;;;0.25;0.00;;;;;;;2.02;100.00;97482.13;4886928;29;20056;-95
2024/03/01 03:06:17;;;;;;;0.40;0.10;;;;;;;2.00;100.00;97480.63;4901124;29;20040;-94
2024/03/01 03:08:47;;;;;;;0.10;0.10;;;;;;;1.98;100.00;97470.38;4866448;29;20084;-95
2024/03/01 03:11:13;;;;;;;0.00;0.00;;;;;;;1.96;100.00;97470.53;4875695;29;20059;-94
2024/03/01 03:13:41;;;;;;;0.00;0.00;;;;;;;1.95;100.00;97474.13;4864513;29;20040;-95
2024/03/01 03:16:30;;;;;;;0.57;0.00;;;;;;;1.90;100.00;97454.72;4883004;29;20032;-94
2024/03/01 03:19:01;;;;;;;0.32;0.10;;;;;;;1.89;100.00;97455.72;4891474;29;20047;-95
2024/03/01 03:21:33;;;;;;;0.00;0.00;;;;;;;1.89;100.00;97442.69;4881225;29;20032;-95
2024/03/01 03:23:59;;;;;;;0.50;0.10;;;;;;;1.83;100.00;97436.38;4887265;29;20028;-95
2024/03/01 03:26:25;;;;;;;0.08;0.08;;;;;;;1.86;100.00;97428.22;4912260;29;20042;-94
2024/03/01 03:28:52;;;;;;;0.00;0.00;;;;;;;1.93;100.00;97428.34;4886356;29;20035;-95
2024/03/01 03:31:31;;;;;;;0.20;0.20;;;;;;;1.92;100.00;97431.94;4875706;29;20040;-95
2024/03/01 03:34:04;;;;;;;0.40;0.10;;;;;;;1.85;100.00;97419.59;4902205;29;20043;-94
2024/03/01 03:36:36;;;;;;;0.52;0.15;;;;;;;1.81;100.00;97412.25;4867237;29;20047;-96
2024/03/01 03:39:16;;;;;;;0.45;0.10;;;;;;;1.75;100.00;97415.53;4882129;29;20128;-95
2024/03/01 03:41:45;;;;;;;0.32;0.20;;;;;;;1.74;100.00;97414.69;4897945;29;20120;-95
2024/03/01 03:44:11;;;;;;;0.17;0.10;;;;;;;1.73;100.00;97424.31;4904270;29;20047;-96
2024/03/01 03:46:40;;;;;;;0.38;0.13;;;;;;;1.75;100.00;97415.53;4895176;29;20039;-95
2024/03/01 03:49:33;;;;;;;0.80;0.35;;;;;;;1.70;100.00;97416.84;4914638;29;20067;-95
2024/03/01 03:51:59;;;;;;;0.22;0.20;;;;;;;1.72;100.00;97420.06;4867723;29;20043;-95
2024/03/01 03:54:28;;;;;;;0.93;0.20;;;;;;;1.75;100.00;97418.13;4921090;23;20102;-89
2024/03/01 03:56:54;;;;;;;0.52;0.20;;;;;;;1.73;100.00;97426.09;4907538;29;20071;-89
2024/03/01 04:02:23;;;;;;;;;;;;;;;1.70;100.00;97413.41;4871831;29;20052;-88
2024/03/01 04:04:51;;;;;;;2.15;0.38;;;;;;;1.80;100.00;97426.28;4847611;29;20014;-87
2024/03/01 04:07:41;;;;;;;0.30;0.30;;;;;;;1.82;100.00;97403.47;4884233;29;20137;-86
2024/03/01 04:10:11;;;;;;;0.63;0.25;;;;;;;1.82;100.00;97421.69;4879591;29;20028;-89
2024/03/01 04:13:12;;;;;;;0.73;0.20;;;;;;;1.90;100.00;97413.06;4880420;29;20048;-87
2024/03/01 04:15:42;;;;;;;1.20;0.30;;;;;;;1.92;100.00;97414.53;4887517;29;20739;-88
2024/03/01 04:18:29;;;;;;;1.55;0.40;;;;;;;1.90;100.00;97403.47;4886806;29;20051;-89
2024/03/01 04:21:34;;;;;;;0.30;0.20;;;;;;;1.92;100.00;97408.50;4881418;29;20124;-89
2024/03/01 04:24:09;;;;;;;0.60;0.10;;;;;;;1.91;100.00;97412.91;4881997;29;20530;-87
2024/03/01 04:26:38;;;;;;;1.10;0.20;;;;;;;1.95;100.00;97410.78;4901444;29;20048;-86
2024/03/01 04:29:07;;;;;;;1.98;0.22;;;;;;;1.92;100.00;97409.34;4876606;29;20117;-89
2024/03/01 04:35:44;;;;;;;0.00;0.00;;;;;;;2.04;100.00;97412.41;4832747;29;20067;-86
2024/03/01 04:38:21;;;;;;;2.80;0.20;;;;;;;2.14;100.00;97425.25;4857814;29;20048;-88
2024/03/01 04:40:47;;;;;;;1.65;0.13;;;;;;;2.15;100.00;97426.09;4879575;29;20045;-86
2024/03/01 04:43:13;;;;;;;0.20;0.05;;;;;;;2.23;100.00;97418.22;4879820;29;20035;-86
2024/03/01 04:45:38;;;;;;;2.13;0.20;;;;;;;2.21;100.00;97422.81;4883099;29;20037;-89
2024/03/01 04:48:05;;;;;;;1.05;0.43;;;;;;;2.24;100.00;97414.66;4871960;29;20379;-85
2024/03/01 04:50:30;;;;;;;2.20;0.30;;;;;;;2.23;100.00;97418.22;4894834;29;20036;-89
2024/03/01 04:53:03;;;;;;;4.07;0.40;;;;;;;2.32;100.00;97425.06;4884366;29;20166;-86
2024/03/01 04:56:20;;;;;;;;;;;;;;;;;;;;;
2024/03/01 04:58:53;;;;;;;0.40;0.40;;;;;;;2.25;100.00;97428.50;4875149;29;20036;-91
2024/03/01 05:01:27;;;;;;;1.40;0.30;;;;;;;2.18;100.00;97431.75;4862925;29;20056;-87
2024/03/01 05:03:55;;;;;;;1.17;0.40;;;;;;;2.18;100.00;97444.78;4876809;29;20075;-85
2024/03/01 05:06:23;;;;;;;4.32;0.43;;;;;;;2.13;100.00;97439.28;4873609;29;20491;-90
2024/03/01 05:08:52;;;;;;;0.77;0.38;;;;;;;2.10;100.00;97419.56;4877146;29;20115;-87
2024/03/01 05:11:45;;;;;;;3.67;0.40;;;;;;;2.12;100.00;97423.81;4860165;29;20836;-90
2024/03/01 05:14:21;;;;;;;0.85;0.30;;;;;;;2.14;100.00;97445.28;4872898;29;20049;-90
2024/03/01 05:16:58;;;;;;;0.50;0.30;;;;;;;2.14;100.00;97445.28;4891057;29;20035;-87
2024/03/01 05:19:25;;;;;;;0.70;0.30;;;;;;;2.16;100.00;97443.34;4876792;29;20100;-89
2024/03/01 05:21:53;;;;;;;3.15;0.57;;;;;;;2.20;100.00;97444.63;4863364;29;20033;-90
2024/03/01 05:24:51;;;;;;;1.42;0.28;;;;;;;2.22;100.00;97434.84;4879351;29;20104;-87
2024/03/01 05:27:21;;;;;;;2.63;0.80;;;;;;;2.20;100.00;97437.63;4876561;29;20117;-89
2024/03/01 05:29:50;;;;;;;1.42;0.30;;;;;;;2.20;100.00;97429.81;4883574;29;20101;-86
2024/03/01 05:32:52;;;;;;;1.63;0.30;;;;;;;2.26;100.00;97430.13;4891041;29;20048;-88
2024/03/01 05:36:05;;;;;;;4.03;1.45;;;;;;;2.32;100.00;97439.91;4863204;29;20116;-85
2024/03/01 05:38:40;;;;;;;2.40;0.45;;;;;;;2.26;100.00;97440.56;4867793;29;20045;-89
2024/03/01 05:41:27;;;;;;;1.42;0.40;;;;;;;2.26;100.00;97437.94;4878768;29;20049;-89
2024/03/01 05:44:07;;;;;;;1.52;0.30;;;;;;;2.32;100.00;97430.28;4862621;29;20045;-90
2024/03/01 05:46:33;;;;;;;3.88;0.45;;;;;;;2.28;100.00;97434.19;4861563;29;20479;-89
2024/03/01 05:49:07;;;;;;;0.57;0.28;;;;;;;2.33;100.00;97431.09;4894938;29;20471;-89
2024/03/01 05:51:33;;;;;;;1.20;0.40;;;;;;;2.30;100.00;97429.63;4886956;29;20124;-88
2024/03/01 05:54:01;;;;;;;3.03;0.40;;;;;;;2.25;100.00;97437.13;4855463;29;20059;-90
2024/03/01 05:56:27;;;;;;;1.33;0.43;;;;;;;2.28;100.00;97439.41;4879526;29;20045;-89
2024/03/01 05:58:53;;;;;;;1.35;0.43;;;;;;;2.31;100.00;97433.06;4873465;29;20044;-89
2024/03/01 06:04:40;;;;;;;0.65;0.22;;;;;;;2.31;100.00;97435.66;4841605;29;20077;-89
2024/03/01 06:07:16;;;;;;;4.25;0.88;;;;;;;2.29;100.00;97428.00;4880865;29;20037;-89
2024/03/01 06:10:17;;;;;;;1.08;0.40;;;;;;;2.35;100.00;97437.78;4893035;29;20028;-89
2024/03/01 06:12:48;;;;;;;1.83;0.30;;;;;;;2.32;100.00;97430.28;4870837;29;20051;-90
2024/03/01 06:15:48;;;;;;;2.20;0.45;;;;;;;2.31;100.00;97426.03;4896288;29;20049;-90
2024/03/01 06:18:22;;;;;;;3.03;0.40;;;;;;;2.22;100.00;97430.47;4844835;29;20044;-89
2024/03/01 06:20:51;;;;;;;1.27;0.30;;;;;;;2.14;100.00;97417.44;4892178;29;20056;-88
2024/03/01 06:23:55;;;;;;;4.60;0.60;;;;;;;2.22;100.00;97429.63;4863642;29;20072;-88
2024/03/01 06:26:22;;;;;;;4.88;0.47;;;;;;;2.13;100.00;97434.06;4891140;29;20059;-90
2024/03/01 06:29:12;;;;;;;0.70;0.30;;;;;;;2.21;100.00;97418.41;4863796;29;20056;-88
2024/03/01 06:32:12;;;;;;;5.25;1.58;;;;;;;2.25;100.00;97407.63;4852458;29;20051;-89
2024/03/01 06:34:46;;;;;;;6.00;0.50;;;;;;;2.17;100.00;97408.47;4872881;29;20043;-90
2024/03/01 06:37:37;;;;;;;2.22;0.30;;;;;;;2.12;100.00;97400.34;4879975;29;20037;-89
2024/03/01 06:40:09;;;;;;;2.33;0.40;;;;;;;2.13;100.00;97415.81;4893237;29;20081;-89
2024/03/01 06:42:38;;;;;;;1.50;0.40;;;;;;;2.13;100.00;97405.41;4847003;29;20048;-88
2024/03/01 06:45:14;;;;;;;3.58;0.30;;;;;;;2.14;100.00;97401.81;4892930;29;20104;-89
2024/03/01 06:47:40;;;;;;;0.80;0.30;;;;;;;2.13;100.00;97391.56;4870427;29;20131;-89
2024/03/01 06:50:15;;;;;;;1.75;0.38;;;;;;;2.13;100.00;97386.34;4892884;29;20036;-90
2024/03/01 06:52:56;;;;;;;0.43;0.20;;;;;;;2.14;100.00;97387.97;4878007;29;20049;-90
2024/03/01 06:55:43;;;;;;;2.28;0.30;;;;;;;2.28;100.00;97402.91;4866715;29;20044;-89
2024/03/01 06:58:09;;;;;;;5.15;0.50;;;;;;;2.18;100.00;97397.09;4878210;29;20215;-89
2024/03/01 07:00:46;;;;;;;1.95;0.30;;;;;;;2.20;100.00;97398.53;4897371;29;20477;-88
2024/03/01 07:03:35;;;;;;;1.17;0.35;;;;;;;2.23;100.00;97394.78;4830910;29;20030;-89
2024/03/01 07:06:01;;;;;;;5.30;0.57;;;;;;;2.16;100.00;97388.59;4881896;29;20026;-89
2024/03/01 07:08:29;;;;;;;1.45;0.35;;;;;;;2.26;100.00;97406.69;4862701;29;20029;-89
2024/03/01 07:10:55;;;;;;;6.10;1.20;;;;;;;2.24;100.00;97406.84;4893742;29;20033;-89
2024/03/01 07:13:56;;;;;;;6.35;0.60;;;;;;;2.26;100.00;97404.06;4857839;29;20051;-86
2024/03/01 07:17:24;;;;;;;31.45;24.23;;;;;;;2.27;100.00;97403.91;4858997;29;20041;-89
2024/03/01 07:20:49;;;;;;;3.42;0.50;;;;;;;2.28;100.00;97408.13;4861891;29;20032;-89
2024/03/01 07:23:18;;;;;;;2.25;0.50;;;;;;;2.26;100.00;97410.09;4880333;29;20041;-88
2024/03/01 07:25:51;;;;;;;5.30;0.50;;;;;;;2.24;100.00;97409.44;4891053;29;20041;-90
2024/03/01 07:28:24;;;;;;;3.15;0.55;;;;;;;2.30;100.00;97414.00;4873935;29;20521;-91
2024/03/01 07:30:50;;;;;;;4.45;0.40;;;;;;;2.28;100.00;97421.16;4864499;29;20033;-90
2024/03/01 07:33:19;;;;;;;0.50;0.30;;;;;;;2.22;100.00;97411.41;4863216;29;20052;-90
2024/03/01 07:36:17;;;;;;;1.00;0.20;;;;;;;2.22;100.00;97417.44;4890470;29;20045;-90
2024/03/01 07:38:43;;;;;;;5.50;0.52;;;;;;;2.20;100.00;97414.16;4867682;29;20056;-88
2024/03/01 07:41:09;;;;;;;2.33;0.30;;;;;;;2.29;100.00;97408.94;4874792;29;20432;-85
2024/03/01 07:43:40;;;;;;;0.68;0.20;;;;;;;2.28;100.00;97412.53;4855639;29;20428;-88
2024/03/01 07:46:05;;;;;;;2.58;0.47;;;;;;;2.35;100.00;97413.50;4891067;29;20037;-89
2024/03/01 07:49:38;;;;;;;5.70;0.80;;;;;;;2.41;100.00;97407.63;4873380;29;20032;-87
2024/03/01 07:52:05;;;;;;;7.57;0.68;;;;;;;2.40;100.00;97407.78;4893208;29;20036;-89
2024/03/01 07:55:12;;;;;;;3.10;0.63;;;;;;;2.42;100.00;97400.63;4895978;29;20036;-87
2024/03/01 08:01:09;;;;;;;6.57;0.73;;;;;;;2.25;100.00;97385.00;4852081;29;20104;-89
2024/03/01 08:07:41;;;;;;;3.20;0.30;;;;;;;2.42;100.00;97379.75;4861279;29;20172;-87
2024/03/01 08:10:48;;;;;;;4.63;1.00;;;;;;;2.52;100.00;97379.53;4880585;29;21073;-89
2024/03/01 08:13:27;;;;;;;6.25;0.70;;;;;;;2.46;100.00;97365.41;4892176;29;20068;-88
2024/03/01 08:16:01;;;;;;;;;;;;;;;2.40;100.00;97363.47;4889303;29;20520;-88
2024/03/01 08:18:40;;;;;;;6.47;0.68;;;;;;;2.44;100.00;97362.13;4873383;29;19936;-90
2024/03/01 08:21:20;;;;;;;6.22;0.90;;;;;;;2.46;100.00;97339.31;4892908;29;20526;-89
2024/03/01 08:23:48;;;;;;;1.45;0.50;;;;;;;2.46;100.00;97349.75;4867292;29;20033;-89
2024/03/01 08:26:23;;;;;;;4.80;0.68;;;;;;;2.52;100.00;97356.06;4866827;29;20415;-86
2024/03/01 08:28:49;;;;;;;5.03;0.63;;;;;;;2.36;100.00;97342.13;4882376;29;20041;-85
2024/03/01 08:31:26;;;;;;;5.32;0.93;;;;;;;2.47;100.00;97340.94;4880876;29;20467;-87
2024/03/01 08:33:57;;;;;;;4.28;0.77;;;;;;;2.52;100.00;97346.47;4865171;29;20037;-89
2024/03/01 08:36:26;;;;;;;6.07;1.17;;;;;;;2.48;100.00;97335.56;4886629;29;20088;-87
2024/03/01 08:39:15;;;;;;;5.88;2.00;;;;;;;2.52;100.00;97330.00;4895873;29;20044;-88
2024/03/01 08:41:48;;;;;;;5.13;0.65;;;;;;;2.57;100.00;97340.75;4860928;29;20077;-87
2024/03/01 08:44:37;;;;;;;4.18;0.30;;;;;;;2.57;100.00;97338.13;4891096;29;20080;-89
2024/03/01 08:47:03;;;;;;;5.22;0.70;;;;;;;2.57;100.00;97336.34;4865022;29;20036;-90
2024/03/01 08:49:32;;;;;;;3.67;0.70;;;;;;;2.64;100.00;97339.09;4875973;29;20033;-88
2024/03/01 08:52:12;;;;;;;3.38;0.65;;;;;;;2.67;100.00;97346.56;4857933;29;20072;-88
2024/03/01 08:55:03;;;;;;;1.42;0.40;;;;;;;2.66;100.00;97354.56;4877414;29;20071;-88
2024/03/01 08:57:37;;;;;;;1.08;0.40;;;;;;;2.67;100.00;97350.97;4866483;29;20060;-89
2024/03/01 09:04:39;;;;;;;4.28;0.30;;;;;;;2.62;100.00;97358.47;4900202;29;20084;-85
2024/03/01 09:07:14;;;;;;;2.20;0.63;;;;;;;2.65;100.00;97361.56;4883488;29;20040;-88
2024/03/01 09:09:43;;;;;;;3.70;0.30;;;;;;;2.68;100.00;97356.00;4877183;29;20119;-89
2024/03/01 09:12:25;;;;;;;6.65;0.50;;;;;;;2.69;100.00;97354.22;4878971;29;20021;-89
2024/03/01 09:15:21;;;;;;;5.22;0.82;;;;;;;2.70;100.00;97348.03;4872569;29;20059;-90
2024/03/01 09:17:59;;;;;;;1.00;0.45;;;;;;;2.63;100.00;97344.47;4880722;29;20128;-89
2024/03/01 09:20:44;;;;;;;3.72;0.75;;;;;;;2.76;100.00;97349.13;4879071;29;20045;-89
2024/03/01 09:23:16;;;;;;;4.55;0.43;;;;;;;2.69;100.00;97333.38;4863615;29;20379;-89
2024/03/01 09:26:06;;;;;;;1.95;0.30;;;;;;;2.67;100.00;97324.88;4847090;29;20127;-89
2024/03/01 09:28:47;;;;;;;4.32;0.40;;;;;;;2.70;100.00;97332.38;4893781;29;20123;-88
2024/03/01 09:31:38;;;;;;;3.08;0.45;;;;;;;2.69;100.00;97331.56;4893715;29;20380;-89
2024/03/01 09:34:19;;;;;;;1.17;0.30;;;;;;;2.73;100.00;97339.84;4890346;29;20077;-88
2024/03/01 09:36:45;;;;;;;2.42;0.65;;;;;;;2.77;100.00;97341.13;4887855;29;20147;-87
2024/03/01 09:39:16;;;;;;;4.20;0.30;;;;;;;2.80;100.00;97338.19;4889688;29;20049;-88
2024/03/01 09:42:13;;;;;;;0.60;0.30;;;;;;;2.84;100.00;97326.44;4874834;29;20088;-87
2024/03/01 09:44:54;;;;;;;0.70;0.30;;;;;;;2.83;100.00;97319.59;4876917;29;20056;-89
2024/03/01 09:47:38;;;;;;;4.28;0.40;;;;;;;2.82;100.00;97325.00;4880622;29;20037;-83
2024/03/01 09:50:31;;;;;;;2.83;0.30;;;;;;;2.63;100.00;97327.03;4851369;29;20052;-88
2024/03/01 09:53:38;;;;;;;1.77;0.30;;;;;;;2.67;100.00;97330.09;4841045;29;20820;-86
2024/03/01 09:56:16;;;;;;;1.08;0.20;;;;;;;2.59;100.00;97333.56;4846501;29;20047;-90
2024/03/01 09:58:59;;;;;;;0.68;0.17;;;;;;;2.58;100.00;97327.53;4826138;29;20073;-87
2024/03/01 10:01:40;;;;;;;0.13;0.13;;;;;;;2.50;100.00;97316.34;4855698;29;20556;-85
2024/03/01 10:04:38;;;;;;;2.58;0.10;;;;;;;2.47;100.00;97326.13;4823420;29;20053;-89
2024/03/01 10:08:05;;;;;;;0.43;0.20;;;;;;;2.53;100.00;97334.25;4822046;29;20120;-88
2024/03/01 10:11:12;;;;;;;1.50;0.28;;;;;;;2.56;100.00;97326.91;4777829;29;20046;-88
2024/03/01 10:14:14;;;;;;;0.88;0.20;;;;;;;2.65;100.00;97325.06;4850321;29;20029;-89
2024/03/01 10:17:11;;;;;;;0.40;0.10;;;;;;;2.56;100.00;97318.25;4840527;29;20050;-83
2024/03/01 10:20:21;;;;;;;0.77;0.20;;;;;;;2.50;100.00;97317.13;4871239;29;20461;-87
2024/03/01 10:23:27;;;;;;;0.10;0.10;;;;;;;2.47;100.00;97313.09;4878390;29;20049;-88
2024/03/01 10:26:32;;;;;;;0.10;0.00;;;;;;;2.44;100.00;97321.25;4873811;29;20056;-89
2024/03/01 10:29:04;;;;;;;0.15;0.10;;;;;;;2.40;100.00;97322.56;4812801;29;20512;-89
2024/03/01 10:32:44;;;;;;;0.13;0.10;;;;;;;2.37;100.00;97311.66;4792959;29;20107;-87
2024/03/01 10:43:38;;;;;;;0.00;0.00;;;;;;;2.07;100.00;97302.66;4749014;30;20066;-91
2024/03/01 10:46:46;;;;;;;0.00;0.00;;;;;;;2.05;100.00;97309.84;4762081;30;20117;-90
2024/03/01 10:57:50;;;;;;;;;;;;;;;;;;;;;
2024/03/01 11:06:03;;;;;;;0.20;0.20;;;;;;;1.82;100.00;97301.91;4730630;30;20448;-89
2024/03/01 11:09:10;;;;;;;1.65;0.13;;;;;;;1.74;100.00;97305.31;4703275;30;20102;-90
2024/03/01 11:47:13;;;;;;;0.55;0.30;;;;;;;1.60;100.00;97314.63;4790409;29;20037;-89
2024/03/01 12:06:48;;;;;;;0.60;0.30;;;;;;;1.52;100.00;97323.25;4787997;29;20041;-83
2024/03/01 12:13:53;;;;;;;1.35;0.50;;;;;;;1.44;100.00;97316.28;4831792;29;20551;-85
2024/03/01 12:16:36;;;;;;;0.52;0.10;;;;;;;1.45;100.00;97323.09;4848458;29;20041;-84
2024/03/01 12:19:41;;;;;;;1.23;0.60;;;;;;;1.44;100.00;97329.28;4825804;29;20029;-85
2024/03/01 12:26:46;;;;;;;0.50;0.50;;;;;;;1.55;100.00;97324.72;4820828;29;20030;-84
2024/03/01 12:29:27;;;;;;;1.63;0.52;;;;;;;1.69;100.00;97333.69;4823183;29;20033;-85
2024/03/01 12:32:37;;;;;;;1.20;0.50;;;;;;;1.77;100.00;97340.66;4818435;29;20287;-86
2024/03/01 12:39:30;;;;;;;0.60;0.40;;;;;;;1.79;100.00;97342.13;4841848;29;20815;-83
2024/03/01 12:42:37;;;;;;;1.02;0.60;;;;;;;1.86;100.00;97350.88;4851023;29;20042;-82
2024/03/01 12:45:38;;;;;;;1.48;0.38;;;;;;;1.93;100.00;97353.66;4824670;29;20076;-84
2024/03/01 12:48:23;;;;;;;0.90;0.50;;;;;;;1.95;100.00;97345.66;4844592;29;20036;-84
2024/03/01 12:51:08;;;;;;;1.75;0.47;;;;;;;2.00;100.00;97355.59;4825162;29;20121;-84
2024/03/01 12:55:05;;;;;;;1.42;0.60;;;;;;;2.00;100.00;97371.22;4836679;29;20102;-84
2024/03/01 12:57:50;;;;;;;1.25;0.68;;;;;;;2.08;100.00;97353.78;4838327;29;20041;-87
2024/03/01 13:00:47;;;;;;;1.67;0.80;;;;;;;2.08;100.00;97368.59;4838301;29;20106;-86
2024/03/01 13:04:17;;;;;;;3.22;0.82;;;;;;;2.26;100.00;97370.19;4827764;29;20094;-85
2024/03/01 13:07:29;;;;;;;;;;;;;;;;;;;;;
2024/03/01 13:10:28;;;;;;;4.95;0.75;;;;;;;2.44;100.00;97375.16;4845088;29;20038;-84
2024/03/01 13:13:05;;;;;;;3.78;0.70;;;;;;;2.50;100.00;97381.53;4828338;29;20042;-86
2024/03/01 13:16:14;;;;;;;1.10;0.50;;;;;;;2.57;100.00;97382.47;4846795;29;20094;-84
2024/03/01 13:18:59;;;;;;;2.58;0.55;;;;;;;2.57;100.00;97388.50;4851034;29;20046;-81
2024/03/01 13:22:08;;;;;;;2.55;0.60;;;;;;;2.55;100.00;97390.44;4831555;29;20049;-82
2024/03/01 13:24:56;;;;;;;1.65;0.30;;;;;;;2.30;100.00;97400.13;4832885;29;20052;-82
2024/03/01 13:27:36;;;;;;;0.75;0.65;;;;;;;2.26;100.00;97412.72;4829013;29;20035;-85
2024/03/01 13:30:21;;;;;;;2.63;0.57;;;;;;;2.15;100.00;97406.03;4832328;29;20077;-87
2024/03/01 13:33:12;;;;;;;0.70;0.50;;;;;;;2.07;100.00;97408.66;4852003;29;20508;-86
2024/03/01 13:36:13;;;;;;;1.10;0.60;;;;;;;2.01;100.00;97430.16;4832613;29;20041;-82
2024/03/01 13:38:56;;;;;;;1.70;0.65;;;;;;;1.94;100.00;97425.59;4833180;29;20042;-81
2024/03/01 13:41:28;;;;;;;1.55;0.47;;;;;;;1.90;100.00;97433.91;4837278;29;20729;-83
2024/03/01 13:44:22;;;;;;;0.38;0.25;;;;;;;1.90;100.00;97432.13;4856265;29;20506;-83
2024/03/01 13:47:21;;;;;;;4.53;0.60;;;;;;;1.92;100.00;97440.59;4836594;29;20045;-84
2024/03/01 13:50:09;;;;;;;2.05;0.68;;;;;;;1.96;100.00;97443.66;4829238;29;20049;-82
2024/03/01 13:52:49;;;;;;;2.47;1.08;;;;;;;1.96;100.00;97451.47;4843354;29;20061;-85
2024/03/01 13:55:19;;;;;;;2.90;1.33;;;;;;;2.00;100.00;97447.59;4850707;29;20084;-86
2024/03/01 13:57:47;;;;;;;2.83;1.08;;;;;;;1.99;100.00;97443.38;4847390;29;20511;-83
2024/03/01 14:00:25;;;;;;;1.48;0.88;;;;;;;2.00;100.00;97460.63;4836444;29;20493;-84
2024/03/01 14:03:07;;;;;;;3.65;1.60;;;;;;;2.08;100.00;97452.78;4843015;29;20050;-87
2024/03/01 14:05:33;;;;;;;1.88;0.73;;;;;;;2.01;100.00;97458.81;4856504;29;20042;-84
2024/03/01 14:09:02;;;;;;;;;;;;;;;;;;;;;
2024/03/01 14:12:25;;;;;;;2.72;1.10;;;;;;;2.27;100.00;97458.63;4806897;29;20045;-93
2024/03/01 14:18:52;;;;;;;3.08;1.00;;;;;;;2.35;100.00;97499.50;4849064;29;20102;-95
2024/03/01 14:30:54;;;;;;;;;;;;;;;;;;;;;
2024/03/01 14:51:50;;;;;;;4.15;0.95;;;;;;;2.79;100.00;97520.94;4747065;30;20047;-90
2024/03/01 14:54:29;;;;;;;2.92;0.95;;;;;;;2.80;100.00;97525.97;4754678;29;20055;-88
2024/03/01 15:00:51;;;;;;;3.30;0.88;;;;;;;2.78;100.00;97517.53;4800050;29;20463;-85
2024/03/01 15:03:20;;;;;;;4.70;0.82;;;;;;;2.90;100.00;97536.25;4826064;29;20050;-84
2024/03/01 15:09:26;;;;;;;5.57;1.17;;;;;;;2.99;100.00;97524.00;4811128;29;20042;-86
2024/03/01 15:12:34;;;;;;;3.25;1.00;;;;;;;2.95;100.00;97530.53;4791179;29;20042;-85
2024/03/01 15:15:09;;;;;;;1.92;0.60;;;;;;;3.00;100.00;97527.41;4813389;29;20089;-84
2024/03/01 15:18:11;;;;;;;6.43;1.50;;;;;;;3.11;100.00;97540.09;4826864;29;20102;-86
2024/03/01 15:20:47;;;;;;;8.32;1.23;;;;;;;3.15;100.00;97527.53;4819814;29;20508;-91
2024/03/01 15:23:46;;;;;;;6.05;0.52;;;;;;;3.22;100.00;97533.69;4841746;29;20066;-87
2024/03/01 15:26:45;;;;;;;3.25;0.98;;;;;;;3.30;100.00;97530.22;4821955;29;20127;-86
2024/03/01 15:29:11;;;;;;;2.97;1.30;;;;;;;3.38;100.00;97529.41;4824024;29;20045;-86
2024/03/01 15:31:55;;;;;;;3.92;1.48;;;;;;;3.42;100.00;97525.47;4819671;29;20094;-89
2024/03/01 15:34:21;;;;;;;2.65;1.35;;;;;;;3.51;100.00;97521.81;4854045;29;20049;-87
2024/03/01 15:37:38;;;;;;;2.83;1.23;;;;;;;3.64;100.00;97520.44;4825738;29;20037;-90
2024/03/01 15:40:31;;;;;;;4.45;1.23;;;;;;;3.58;100.00;97521.97;4828528;29;20034;-88
2024/03/01 15:46:49;;;;;;;3.47;1.40;;;;;;;3.72;100.00;97538.69;4843368;29;20549;-91
2024/03/01 15:50:06;;;;;;;2.45;1.10;;;;;;;3.72;100.00;97552.56;4828446;29;20033;-88
2024/03/01 15:53:19;;;;;;;9.02;1.55;;;;;;;3.72;100.00;97556.97;4842594;29;20069;-89
2024/03/01 16:09:18;;;;;;;4.32;0.60;;;;;;;3.65;100.00;97587.38;4851466;29;20114;-87
2024/03/01 16:53:08;;;;;;;7.28;2.20;;;;;;;3.76;100.00;97628.00;5591833;23;20060;-96
2024/03/01 16:56:26;;;;;;;6.05;1.27;;;;;;;3.76;100.00;97638.44;4880632;29;20040;-96
2024/03/01 17:03:32;;;;;;;6.03;1.35;;;;;;;3.72;100.00;97653.63;4865144;29;20069;-88
2024/03/01 17:06:42;;;;;;;3.60;0.95;;;;;;;3.67;100.00;97661.97;4860865;29;20106;-90
2024/03/01 17:13:34;;;;;;;3.22;0.85;;;;;;;3.67;100.00;97669.00;4888928;29;20036;-88
2024/03/01 17:16:07;;;;;;;6.55;1.17;;;;;;;3.66;100.00;97673.44;4864875;29;20053;-90
2024/03/01 17:18:56;;;;;;;3.10;1.05;;;;;;;3.70;100.00;97679.94;4877013;29;20100;-87
2024/03/01 17:22:21;;;;;;;3.60;0.80;;;;;;;3.79;100.00;97688.53;4846703;29;20199;-91
2024/03/01 17:25:16;;;;;;;8.30;0.80;;;;;;;3.78;100.00;97676.47;4867565;29;20088;-91
2024/03/01 17:27:45;;;;;;;3.45;1.17;;;;;;;3.72;100.00;97713.72;4898741;29;20025;-88
2024/03/01 17:30:17;;;;;;;3.65;0.80;;;;;;;3.62;100.00;97715.69;4849775;29;20037;-87
2024/03/01 17:36:30;;;;;;;2.30;0.63;;;;;;;3.68;100.00;97722.88;4904451;29;20103;-90
2024/03/01 17:39:05;;;;;;;4.38;1.17;;;;;;;3.64;100.00;97716.34;4882559;29;20048;-90
2024/03/01 17:41:32;;;;;;;5.88;1.17;;;;;;;3.67;100.00;97724.69;4867827;29;20121;-88
2024/03/01 17:44:10;;;;;;;2.75;0.77;;;;;;;3.66;100.00;97724.84;4879940;29;20036;-89